Time;durP1;ratioP1;P1;durP2;ratioP2;P2;SDS_P1;SDS_P2;PMS_P1;PMS_P2;Temp;Humidity;BMP_temperature;BMP_pressure;BME280_temperature;BME280_humidity;BME280_pressure;Samples;Min_cycle;Max_cycle;Signal;HPM_P1;HPM_P2
2021/05/27 00:04:25;;;;;;;0.97;0.77;;;17.90;64.60;;;;;;10492011;28;20200;-21
2021/05/27 00:09:46;;;;;;;0.80;0.70;;;17.90;64.80;;;;;;10492749;28;20208;-24
2021/05/27 00:15:11;;;;;;;0.60;0.60;;;17.90;64.40;;;;;;10492667;28;20200;-22
2021/05/27 00:20:32;;;;;;;0.83;0.70;;;17.90;64.80;;;;;;10492340;28;20299;-23
2021/05/27 00:25:54;;;;;;;0.50;0.50;;;17.90;64.40;;;;;;10494136;28;20200;-21
2021/05/27 00:31:16;;;;;;;1.10;0.70;;;17.90;64.50;;;;;;10575901;22;20748;-25
2021/05/27 00:36:38;;;;;;;1.00;0.70;;;17.90;64.30;;;;;;10616862;27;20198;-24
2021/05/27 00:41:59;;;;;;;0.77;0.70;;;17.90;64.50;;;;;;10626117;27;20592;-22
2021/05/27 00:47:22;;;;;;;0.80;0.70;;;17.90;64.30;;;;;;10625497;27;20668;-24
2021/05/27 00:52:44;;;;;;;0.97;0.67;;;17.90;64.20;;;;;;10644932;27;20564;-22
2021/05/27 00:58:05;;;;;;;0.90;0.80;;;17.90;64.30;;;;;;10662388;27;20238;-24
2021/05/27 01:03:28;;;;;;;0.90;0.60;;;17.90;64.80;;;;;;10632982;27;20738;-22
2021/05/27 01:08:49;;;;;;;0.80;0.60;;;17.90;64.60;;;;;;10625858;27;20263;-23
2021/05/27 01:14:13;;;;;;;0.50;0.50;;;17.90;64.80;;;;;;10625009;27;20190;-24
2021/05/27 01:19:55;;;;;;;0.50;0.50;;;17.80;64.70;;;;;;10638566;27;20217;-26
2021/05/27 01:25:18;;;;;;;0.93;0.60;;;17.90;64.80;;;;;;10623528;27;20205;-25
2021/05/27 01:30:40;;;;;;;1.10;0.60;;;17.90;64.50;;;;;;10627831;27;20224;-24
2021/05/27 01:36:01;;;;;;;1.67;0.73;;;17.90;64.40;;;;;;10622948;27;20205;-27
2021/05/27 01:41:24;;;;;;;1.07;0.67;;;17.90;64.50;;;;;;10607481;27;20639;-24
2021/05/27 01:46:45;;;;;;;0.90;0.40;;;17.90;64.50;;;;;;10582074;28;20334;-25
2021/05/27 01:52:07;;;;;;;0.83;0.60;;;17.90;64.40;;;;;;10579984;28;20620;-25
2021/05/27 01:57:30;;;;;;;0.50;0.50;;;17.90;64.40;;;;;;10580059;28;20191;-25
2021/05/27 02:02:52;;;;;;;0.90;0.57;;;17.80;64.60;;;;;;10579921;28;20214;-24
2021/05/27 02:08:14;;;;;;;0.40;0.40;;;17.80;64.60;;;;;;10579707;28;20214;-27
2021/05/27 02:13:36;;;;;;;0.97;0.80;;;17.80;64.70;;;;;;10579144;28;20195;-23
2021/05/27 02:18:58;;;;;;;0.40;0.40;;;17.90;64.70;;;;;;10642945;27;20210;-26
2021/05/27 02:24:19;;;;;;;1.13;0.70;;;17.90;64.20;;;;;;10664255;27;20192;-23
2021/05/27 02:29:42;;;;;;;0.97;0.50;;;17.90;64.40;;;;;;10664397;27;20213;-24
2021/05/27 02:35:04;;;;;;;0.40;0.40;;;17.90;64.50;;;;;;10663599;27;20193;-24
2021/05/27 02:40:28;;;;;;;0.50;0.40;;;17.90;64.50;;;;;;10657289;27;20214;-23
2021/05/27 02:45:50;;;;;;;0.60;0.60;;;17.90;64.40;;;;;;10622187;27;20568;-23
2021/05/27 02:51:12;;;;;;;0.50;0.50;;;17.80;64.40;;;;;;10621712;27;20267;-27
2021/05/27 02:56:34;;;;;;;0.70;0.70;;;17.80;64.20;;;;;;10619398;27;20200;-23
2021/05/27 03:01:56;;;;;;;0.50;0.50;;;17.80;64.40;;;;;;10619777;27;20225;-23
2021/05/27 03:07:18;;;;;;;0.50;0.50;;;17.80;64.50;;;;;;10620199;27;20194;-23
2021/05/27 03:12:39;;;;;;;0.73;0.40;;;17.80;64.60;;;;;;10621303;27;20200;-26
2021/05/27 03:18:03;;;;;;;0.70;0.50;;;17.90;64.80;;;;;;10617620;27;20274;-23
2021/05/27 03:23:25;;;;;;;0.93;0.43;;;17.90;64.30;;;;;;10619642;27;20220;-23
2021/05/27 03:28:47;;;;;;;0.53;0.50;;;17.90;64.30;;;;;;10620361;27;20719;-24
2021/05/27 03:34:09;;;;;;;1.53;0.50;;;17.90;64.40;;;;;;10622476;27;20198;-23
2021/05/27 03:39:31;;;;;;;0.50;0.50;;;17.80;64.30;;;;;;10650468;27;20213;-23
2021/05/27 03:44:52;;;;;;;1.00;0.40;;;17.80;64.50;;;;;;10576299;28;20194;-23
2021/05/27 03:50:16;;;;;;;0.40;0.40;;;17.80;64.50;;;;;;10576191;28;20206;-23
2021/05/27 03:55:38;;;;;;;3.23;0.60;;;17.90;64.70;;;;;;10575662;28;20198;-26
2021/05/27 04:01:00;;;;;;;0.47;0.47;;;17.90;64.30;;;;;;10579983;28;20213;-23
2021/05/27 04:17:38;;;;;;;0.50;0.40;;;17.80;64.80;;;;;;10634270;27;20204;-25
2021/05/27 04:23:01;;;;;;;0.40;0.40;;;17.80;64.60;;;;;;10625950;27;20245;-23
2021/05/27 04:28:23;;;;;;;0.37;0.30;;;17.90;64.30;;;;;;10626264;27;20226;-23
2021/05/27 04:33:53;;;;;;;0.53;0.50;;;17.80;64.40;;;;;;10625821;27;20190;-26
2021/05/27 04:39:15;;;;;;;0.67;0.40;;;17.90;64.60;;;;;;10647754;27;20808;-23
2021/05/27 04:44:37;;;;;;;0.90;0.53;;;17.80;64.80;;;;;;10606241;27;20210;-26
2021/05/27 04:49:58;;;;;;;1.23;0.50;;;17.80;64.50;;;;;;10625017;27;20214;-24
2021/05/27 04:55:21;;;;;;;1.27;0.50;;;17.80;64.90;;;;;;10625336;27;20201;-23
2021/05/27 05:00:43;;;;;;;2.13;0.70;;;17.80;64.70;;;;;;10624615;27;20217;-23
2021/05/27 05:06:05;;;;;;;0.70;0.47;;;17.80;64.80;;;;;;10624268;27;20197;-25
2021/05/27 05:11:27;;;;;;;1.87;0.63;;;17.80;64.90;;;;;;10624560;27;20727;-27
2021/05/27 05:16:49;;;;;;;2.13;0.60;;;17.80;64.80;;;;;;10631787;27;20203;-24
2021/05/27 05:22:10;;;;;;;5.73;0.53;;;17.80;64.70;;;;;;10623705;27;20214;-24
2021/05/27 05:27:33;;;;;;;1.23;0.63;;;17.80;64.90;;;;;;10623514;27;20193;-23
2021/05/27 05:32:55;;;;;;;2.07;0.67;;;17.80;64.40;;;;;;10623511;27;20194;-23
2021/05/27 05:38:17;;;;;;;1.83;1.10;;;17.80;64.50;;;;;;10622630;27;20593;-23
2021/05/27 05:43:39;;;;;;;1.43;0.83;;;17.80;64.70;;;;;;10662261;27;20217;-24
2021/05/27 05:49:01;;;;;;;1.87;1.07;;;17.80;64.90;;;;;;10666255;27;20286;-24
2021/05/27 05:54:23;;;;;;;4.77;1.40;;;17.80;64.80;;;;;;10666069;27;20204;-22
2021/05/27 05:59:45;;;;;;;12.60;1.70;;;17.80;65.10;;;;;;10618091;27;20655;-23
2021/05/27 06:05:07;;;;;;;2.27;1.40;;;17.50;63.20;;;;;;10617988;27;20205;-23
2021/05/27 06:10:29;;;;;;;3.40;1.50;;;17.20;62.90;;;;;;10648961;27;20630;-23
2021/05/27 06:15:52;;;;;;;2.10;1.40;;;17.00;63.90;;;;;;10610674;27;20581;-23
2021/05/27 06:21:13;;;;;;;4.63;1.57;;;16.80;64.20;;;;;;10659276;27;20718;-25
2021/05/27 06:26:35;;;;;;;4.20;1.70;;;16.80;64.50;;;;;;10654704;27;20198;-27
2021/05/27 06:31:58;;;;;;;5.90;1.43;;;17.00;64.60;;;;;;10633243;22;20234;-21
2021/05/27 06:37:20;;;;;;;4.30;1.67;;;16.80;64.20;;;;;;10617528;27;20200;-22
2021/05/27 06:42:43;;;;;;;4.50;1.90;;;16.80;64.30;;;;;;10597732;27;20221;-21
2021/05/27 06:48:06;;;;;;;5.70;1.60;;;16.80;64.40;;;;;;10578258;28;20189;-24
2021/05/27 06:53:28;;;;;;;4.73;1.50;;;16.70;64.30;;;;;;10594739;27;20192;-22
2021/05/27 06:58:50;;;;;;;4.87;1.70;;;16.50;64.70;;;;;;10601109;27;20228;-21
2021/05/27 07:04:12;;;;;;;2.70;0.90;;;16.50;64.50;;;;;;10618723;27;20188;-23
2021/05/27 07:09:34;;;;;;;4.07;1.50;;;16.70;64.10;;;;;;10582769;27;20224;-23
2021/05/27 07:14:55;;;;;;;4.53;1.53;;;16.80;64.40;;;;;;10591291;27;20191;-22
2021/05/27 07:20:19;;;;;;;3.70;1.40;;;16.80;64.30;;;;;;10619328;27;20218;-23
2021/05/27 07:25:40;;;;;;;4.60;1.17;;;17.00;63.60;;;;;;10618274;27;20204;-23
2021/05/27 07:31:03;;;;;;;3.70;1.30;;;17.00;63.30;;;;;;10618689;27;20269;-23
2021/05/27 07:36:25;;;;;;;6.80;1.40;;;17.00;62.80;;;;;;10578809;28;20664;-22
2021/05/27 07:41:47;;;;;;;4.17;1.23;;;16.80;63.90;;;;;;10593981;28;20706;-22
2021/05/27 07:47:08;;;;;;;3.43;1.00;;;16.90;65.30;;;;;;10596982;28;20207;-23
2021/05/27 07:52:31;;;;;;;3.70;0.90;;;17.10;65.90;;;;;;10593646;28;20209;-22
2021/05/27 07:57:53;;;;;;;3.87;1.40;;;17.30;66.00;;;;;;10617827;28;20201;-24
2021/05/27 08:03:15;;;;;;;2.87;1.30;;;17.30;66.10;;;;;;10617792;28;20263;-21
2021/05/27 08:08:37;;;;;;;1.07;0.90;;;17.40;66.20;;;;;;10588304;28;20203;-21
2021/05/27 08:13:59;;;;;;;1.67;0.90;;;17.40;66.20;;;;;;10582271;28;20197;-23
2021/05/27 08:19:20;;;;;;;1.97;0.93;;;17.50;66.30;;;;;;10618373;28;20228;-24
2021/05/27 08:24:43;;;;;;;2.17;1.00;;;17.50;66.00;;;;;;10617263;28;20224;-20
2021/05/27 08:30:06;;;;;;;2.20;1.07;;;17.60;65.60;;;;;;10614353;27;20226;-23
2021/05/27 08:35:27;;;;;;;1.63;1.00;;;17.70;65.60;;;;;;10575402;28;20210;-21
2021/05/27 08:40:52;;;;;;;2.33;0.93;;;17.70;66.00;;;;;;10617192;28;20627;-20
2021/05/27 08:46:13;;;;;;;3.17;1.00;;;17.70;65.80;;;;;;10616792;28;20616;-20
2021/05/27 08:51:35;;;;;;;3.20;1.00;;;17.70;64.90;;;;;;10609986;27;20210;-20
2021/05/27 08:57:02;;;;;;;4.87;1.20;;;17.60;64.90;;;;;;10582025;28;20205;-21
2021/05/27 09:02:25;;;;;;;1.83;0.77;;;17.70;65.40;;;;;;10601113;27;20225;-20
2021/05/27 09:07:47;;;;;;;4.83;1.03;;;17.60;65.20;;;;;;10624057;27;20197;-22
2021/05/27 09:13:11;;;;;;;1.00;0.80;;;17.80;64.00;;;;;;10622602;27;20239;-21
2021/05/27 09:18:36;;;;;;;3.20;0.83;;;17.90;63.90;;;;;;10611440;27;20237;-22
2021/05/27 09:23:57;;;;;;;2.73;0.80;;;18.00;64.00;;;;;;10613203;27;20213;-23
2021/05/27 09:29:20;;;;;;;1.23;0.90;;;18.10;63.90;;;;;;10623874;27;20237;-25
2021/05/27 09:34:43;;;;;;;2.53;1.00;;;18.20;63.90;;;;;;10622704;27;20194;-22
2021/05/27 09:40:06;;;;;;;3.63;1.00;;;18.20;64.20;;;;;;10624970;27;20225;-25
2021/05/27 09:45:31;;;;;;;3.37;0.77;;;18.20;64.00;;;;;;10619776;27;20220;-20
2021/05/27 09:50:55;;;;;;;3.93;1.00;;;18.10;62.40;;;;;;10614517;27;20737;-22
2021/05/27 09:56:32;;;;;;;3.10;0.90;;;18.00;63.30;;;;;;10580160;28;20199;-21
2021/05/27 10:02:13;;;;;;;1.47;0.80;;;17.90;62.70;;;;;;10581021;27;20227;-21
2021/05/27 10:07:37;;;;;;;1.67;0.73;;;18.00;62.90;;;;;;10601987;27;20198;-23
2021/05/27 10:12:59;;;;;;;1.13;0.53;;;18.00;62.80;;;;;;10580456;27;20705;-22
2021/05/27 10:18:22;;;;;;;4.37;1.07;;;17.90;62.80;;;;;;10622878;27;20209;-21
2021/05/27 10:23:45;;;;;;;2.70;0.90;;;17.90;62.80;;;;;;10611345;27;20275;-21
2021/05/27 10:29:07;;;;;;;2.27;0.80;;;17.90;63.00;;;;;;10579666;28;20223;-23
2021/05/27 10:34:45;;;;;;;3.83;0.90;;;17.90;63.30;;;;;;10578700;28;20665;-23
2021/05/27 10:40:36;;;;;;;2.53;0.80;;;17.90;63.40;;;;;;10579850;28;20586;-21
2021/05/27 10:46:08;;;;;;;1.43;0.80;;;17.90;62.90;;;;;;10588186;27;20231;-21
2021/05/27 10:51:34;;;;;;;2.20;0.50;;;17.90;63.50;;;;;;10611541;27;20210;-21
2021/05/27 10:56:56;;;;;;;1.77;0.60;;;17.90;63.00;;;;;;10620961;27;20273;-23
2021/05/27 11:02:23;;;;;;;2.60;0.80;;;17.80;63.40;;;;;;10618752;27;20221;-22
2021/05/27 11:08:18;;;;;;;0.93;0.50;;;17.80;63.60;;;;;;10597496;27;20666;-21
2021/05/27 11:14:12;;;;;;;1.10;0.63;;;17.80;63.70;;;;;;10606158;27;20193;-21
2021/05/27 11:19:43;;;;;;;1.63;0.70;;;17.80;64.00;;;;;;10585632;27;20206;-22
2021/05/27 11:25:40;;;;;;;1.27;0.70;;;17.80;64.20;;;;;;10576516;28;20209;-21
2021/05/27 11:31:04;;;;;;;2.00;0.80;;;17.80;64.10;;;;;;10575851;28;20207;-21
2021/05/27 11:36:27;;;;;;;1.20;0.63;;;17.80;64.40;;;;;;10575796;28;20199;-24
2021/05/27 11:41:49;;;;;;;0.70;0.60;;;17.80;64.40;;;;;;10595174;28;20597;-24
2021/05/27 11:47:13;;;;;;;1.40;0.73;;;17.80;64.40;;;;;;10583176;28;20190;-23
2021/05/27 11:52:35;;;;;;;1.60;0.70;;;17.80;65.20;;;;;;10617424;28;20483;-21
2021/05/27 11:57:58;;;;;;;1.40;0.50;;;17.80;65.10;;;;;;10618241;28;20194;-22
2021/05/27 12:03:19;;;;;;;3.17;0.80;;;17.80;65.10;;;;;;10614903;28;20238;-22
2021/05/27 12:08:41;;;;;;;1.80;0.70;;;17.80;65.30;;;;;;10616862;28;20201;-21
2021/05/27 12:14:04;;;;;;;2.37;0.90;;;17.80;65.40;;;;;;10613815;28;20198;-20
2021/05/27 12:19:26;;;;;;;1.60;0.60;;;17.80;65.10;;;;;;10607749;28;20214;-21
2021/05/27 12:25:03;;;;;;;2.60;0.60;;;17.80;65.20;;;;;;10615982;28;20577;-21
2021/05/27 12:30:27;;;;;;;1.37;0.70;;;17.80;65.10;;;;;;10616621;27;20210;-25
2021/05/27 12:35:50;;;;;;;1.20;0.50;;;17.80;65.20;;;;;;10629857;22;20740;-26
2021/05/27 12:41:12;;;;;;;2.50;0.87;;;17.80;65.10;;;;;;10615108;27;20224;-27
2021/05/27 12:46:35;;;;;;;0.80;0.47;;;17.80;64.90;;;;;;10608121;27;20230;-25
2021/05/27 12:51:56;;;;;;;2.53;0.80;;;17.80;65.10;;;;;;10601983;27;20194;-25
2021/05/27 12:57:18;;;;;;;2.90;0.70;;;17.80;65.10;;;;;;10622120;27;20210;-24
2021/05/27 13:02:40;;;;;;;0.97;0.70;;;17.80;65.00;;;;;;10624942;27;20214;-26
2021/05/27 13:08:04;;;;;;;1.40;0.70;;;17.80;65.10;;;;;;10605471;27;20214;-24
2021/05/27 13:13:33;;;;;;;0.77;0.50;;;17.80;65.30;;;;;;10609440;27;20202;-25
2021/05/27 13:18:55;;;;;;;1.33;0.60;;;17.80;65.00;;;;;;10583237;27;20194;-24
2021/05/27 13:24:23;;;;;;;1.80;0.60;;;17.80;65.20;;;;;;10580921;28;20612;-25
2021/05/27 13:29:47;;;;;;;4.67;0.70;;;17.80;65.70;;;;;;10581269;27;20428;-21
2021/05/27 13:35:14;;;;;;;4.10;1.33;;;17.90;64.70;;;;;;10648805;27;20594;-22
2021/05/27 13:40:37;;;;;;;21.67;2.47;;;17.90;65.00;;;;;;10621834;27;20296;-23
2021/05/27 13:46:03;;;;;;;3.17;1.03;;;18.00;64.60;;;;;;10592188;27;20222;-23
2021/05/27 13:51:25;;;;;;;6.17;0.90;;;18.00;64.30;;;;;;10610713;27;20565;-25
2021/05/27 13:56:47;;;;;;;7.17;1.43;;;17.90;64.50;;;;;;10625255;27;20649;-22
2021/05/27 14:02:09;;;;;;;5.97;0.80;;;17.90;64.60;;;;;;10624985;27;20218;-24
2021/05/27 14:07:32;;;;;;;6.10;0.90;;;17.90;64.60;;;;;;10623629;27;20255;-23
2021/05/27 14:12:53;;;;;;;5.50;0.80;;;18.00;64.70;;;;;;10615825;27;20195;-23
2021/05/27 14:18:15;;;;;;;4.23;0.80;;;18.00;64.60;;;;;;10578568;28;20559;-23
2021/05/27 14:23:37;;;;;;;2.30;0.60;;;17.90;64.70;;;;;;10581426;27;20223;-23
2021/05/27 14:28:59;;;;;;;3.07;0.93;;;17.90;64.70;;;;;;10578246;28;20198;-25
2021/05/27 14:34:22;;;;;;;3.10;0.73;;;17.90;64.20;;;;;;10619493;27;20222;-23
2021/05/27 14:39:44;;;;;;;4.60;0.70;;;17.80;64.40;;;;;;10621187;27;20190;-24
2021/05/27 14:45:06;;;;;;;1.83;0.67;;;17.80;64.60;;;;;;10620977;27;20712;-23
2021/05/27 14:50:31;;;;;;;1.60;0.60;;;17.80;64.60;;;;;;10621320;27;20246;-25
2021/05/27 14:55:54;;;;;;;1.77;0.87;;;17.80;64.60;;;;;;10621340;27;20217;-24
2021/05/27 15:01:16;;;;;;;1.53;0.80;;;17.80;64.80;;;;;;10621518;27;20253;-23
2021/05/27 15:06:38;;;;;;;1.70;0.80;;;17.70;64.90;;;;;;10620283;27;20218;-24
2021/05/27 15:12:00;;;;;;;2.10;0.60;;;17.70;65.00;;;;;;10620590;27;20618;-25
2021/05/27 15:17:22;;;;;;;3.43;0.90;;;17.70;64.80;;;;;;10591461;27;20268;-25
2021/05/27 15:22:44;;;;;;;2.20;0.80;;;17.70;64.90;;;;;;10576715;28;20259;-24
2021/05/27 15:28:07;;;;;;;1.00;0.70;;;17.80;64.70;;;;;;10614810;27;20221;-24
2021/05/27 15:33:29;;;;;;;1.57;0.77;;;17.70;64.80;;;;;;10619759;27;20226;-25
2021/05/27 15:38:50;;;;;;;1.03;0.70;;;17.70;64.80;;;;;;10619439;27;20205;-23
2021/05/27 15:44:13;;;;;;;0.97;0.63;;;17.70;65.00;;;;;;10618797;28;20225;-22
2021/05/27 15:49:35;;;;;;;1.30;0.50;;;17.70;65.00;;;;;;10618497;28;20256;-23
2021/05/27 15:54:56;;;;;;;1.27;0.60;;;17.70;64.90;;;;;;10617604;28;20570;-23
2021/05/27 16:00:20;;;;;;;2.03;0.70;;;17.70;65.10;;;;;;10618722;27;20210;-23
2021/05/27 16:05:41;;;;;;;0.60;0.60;;;17.70;65.20;;;;;;10626802;27;20293;-22
2021/05/27 16:11:03;;;;;;;1.70;0.90;;;17.70;65.00;;;;;;10627093;27;20193;-23
2021/05/27 16:16:26;;;;;;;1.37;0.60;;;17.70;65.20;;;;;;10626207;27;20723;-23
2021/05/27 16:21:48;;;;;;;0.50;0.50;;;17.70;65.40;;;;;;10626587;27;20217;-26
2021/05/27 16:27:10;;;;;;;1.07;0.67;;;17.70;65.10;;;;;;10626390;27;20222;-23
2021/05/27 16:32:32;;;;;;;0.70;0.40;;;17.70;65.00;;;;;;10628480;27;20736;-23
2021/05/27 16:43:34;;;;;;;1.30;0.70;;;17.70;65.10;;;;;;10619610;27;20224;-23
2021/05/27 16:48:57;;;;;;;0.97;0.73;;;17.70;65.20;;;;;;10625833;27;20247;-23
2021/05/27 16:54:18;;;;;;;1.23;0.70;;;17.70;65.30;;;;;;10624470;27;20206;-22
2021/05/27 16:59:40;;;;;;;0.83;0.50;;;17.70;65.30;;;;;;10623427;27;20606;-24
2021/05/27 17:05:02;;;;;;;2.40;0.83;;;17.70;65.30;;;;;;10623151;27;20209;-23
2021/05/27 17:10:24;;;;;;;1.53;0.50;;;17.70;65.40;;;;;;10625136;27;20201;-23
2021/05/27 17:15:46;;;;;;;0.77;0.63;;;17.70;65.50;;;;;;10622608;27;20225;-23
2021/05/27 17:21:09;;;;;;;0.87;0.53;;;17.70;65.40;;;;;;10618878;27;20206;-24
2021/05/27 17:26:31;;;;;;;1.83;0.70;;;17.70;65.30;;;;;;10617785;27;20218;-24
2021/05/27 17:31:52;;;;;;;1.70;0.60;;;17.70;65.50;;;;;;10618226;27;20196;-24
2021/05/27 17:37:15;;;;;;;2.77;0.60;;;17.70;65.40;;;;;;10616973;27;20233;-23
2021/05/27 17:42:36;;;;;;;1.77;0.80;;;17.70;65.40;;;;;;10627931;27;20218;-24
2021/05/27 17:47:58;;;;;;;0.87;0.60;;;17.70;65.50;;;;;;10616588;27;20749;-23
2021/05/27 17:53:20;;;;;;;0.73;0.63;;;17.70;65.30;;;;;;10615042;27;20786;-23
2021/05/27 17:58:42;;;;;;;0.77;0.50;;;17.70;65.30;;;;;;10617191;27;20206;-23
2021/05/27 18:04:04;;;;;;;3.67;0.60;;;17.70;65.40;;;;;;10586759;27;20226;-24
2021/05/27 18:09:26;;;;;;;4.80;1.00;;;17.70;65.60;;;;;;10576304;27;20442;-23
2021/05/27 18:14:48;;;;;;;2.87;0.63;;;18.00;64.60;;;;;;10601093;27;20263;-23
2021/05/27 18:20:11;;;;;;;0.93;0.73;;;17.90;65.20;;;;;;10597420;27;20194;-23
2021/05/27 18:25:34;;;;;;;1.00;0.70;;;17.80;65.40;;;;;;10578764;28;20219;-25
2021/05/27 18:30:58;;;;;;;2.27;0.90;;;17.80;65.70;;;;;;10579474;28;20195;-23
2021/05/27 18:36:21;;;;;;;0.90;0.73;;;17.80;65.80;;;;;;10575365;28;20571;-24
2021/05/27 18:41:43;;;;;;;2.43;0.93;;;17.80;65.70;;;;;;10577418;27;20223;-23
2021/05/27 18:47:05;;;;;;;8.97;1.07;;;17.90;66.40;;;;;;10578685;27;20223;-22
2021/05/27 18:52:27;;;;;;;4.37;1.73;;;17.90;65.60;;;;;;10575484;27;20260;-23
2021/05/27 18:57:50;;;;;;;3.93;1.60;;;18.00;65.50;;;;;;10613136;27;20697;-23
2021/05/27 19:03:13;;;;;;;6.30;1.67;;;18.00;65.50;;;;;;10617658;27;20243;-23
2021/05/27 19:08:35;;;;;;;3.57;1.83;;;18.00;65.70;;;;;;10653946;27;20213;-22
2021/05/27 19:13:57;;;;;;;9.13;2.00;;;17.90;65.90;;;;;;10655465;27;20197;-24
2021/05/27 19:19:19;;;;;;;4.13;2.00;;;17.90;66.00;;;;;;10655878;27;20190;-23
2021/05/27 19:24:41;;;;;;;3.13;1.50;;;17.90;66.60;;;;;;10654877;27;20755;-24
2021/05/27 19:30:04;;;;;;;3.73;1.83;;;17.90;66.10;;;;;;10552709;22;20279;-22
2021/05/27 19:35:26;;;;;;;2.87;1.77;;;17.90;66.20;;;;;;10526610;28;20200;-22
2021/05/27 19:40:48;;;;;;;7.53;2.33;;;17.90;66.30;;;;;;10547913;28;20639;-23
2021/05/27 19:46:10;;;;;;;3.77;1.87;;;17.90;66.20;;;;;;10577375;28;20543;-25
2021/05/27 19:51:32;;;;;;;5.93;1.67;;;17.80;66.30;;;;;;10577052;28;20195;-22
2021/05/27 19:56:54;;;;;;;3.63;1.70;;;17.90;66.20;;;;;;10576918;28;20218;-22
2021/05/27 20:02:16;;;;;;;2.97;1.87;;;17.80;66.30;;;;;;10561164;28;20585;-20
2021/05/27 20:07:39;;;;;;;3.93;2.03;;;17.80;66.30;;;;;;10554663;28;20230;-22
2021/05/27 20:13:00;;;;;;;2.67;2.10;;;17.80;66.40;;;;;;10552384;28;20241;-22
2021/05/27 20:18:23;;;;;;;4.10;1.73;;;17.80;66.30;;;;;;10555045;28;20222;-23
2021/05/27 20:23:44;;;;;;;3.03;1.67;;;17.80;66.30;;;;;;10554783;28;20206;-22
2021/05/27 20:29:06;;;;;;;2.57;1.47;;;17.80;66.40;;;;;;10554189;28;20231;-24
2021/05/27 20:34:28;;;;;;;1.60;1.30;;;17.80;66.40;;;;;;10553018;28;20184;-22
2021/05/27 20:39:50;;;;;;;2.17;1.50;;;17.70;66.30;;;;;;10553997;28;20639;-22
2021/05/27 20:45:13;;;;;;;2.37;1.67;;;17.70;66.30;;;;;;10555773;28;20190;-25
2021/05/27 20:50:35;;;;;;;1.97;1.50;;;17.70;66.40;;;;;;10561466;28;20271;-25
2021/05/27 20:55:57;;;;;;;3.37;1.67;;;17.70;66.50;;;;;;10561201;28;20308;-24
2021/05/27 21:01:18;;;;;;;2.10;1.53;;;17.70;66.40;;;;;;10562128;28;20210;-22
2021/05/27 21:06:41;;;;;;;3.03;1.80;;;17.70;66.40;;;;;;10559638;28;20215;-22
2021/05/27 21:12:03;;;;;;;1.97;1.50;;;17.70;66.50;;;;;;10559767;28;20245;-22
2021/05/27 21:17:24;;;;;;;2.87;1.40;;;17.70;66.30;;;;;;10561389;28;20233;-22
2021/05/27 21:22:47;;;;;;;2.27;1.50;;;17.70;66.20;;;;;;10579782;28;20217;-21
2021/05/27 21:28:08;;;;;;;3.43;1.40;;;17.70;66.00;;;;;;10581623;28;20222;-21
2021/05/27 21:33:30;;;;;;;1.90;1.40;;;17.70;66.20;;;;;;10581321;28;20566;-24
2021/05/27 21:38:52;;;;;;;2.07;1.40;;;17.70;66.10;;;;;;10581514;28;20229;-22
2021/05/27 21:44:14;;;;;;;2.83;1.40;;;17.70;66.10;;;;;;10549684;28;20686;-21
2021/05/27 21:49:36;;;;;;;1.37;1.17;;;17.70;66.10;;;;;;10563347;28;20734;-20
2021/05/27 21:54:58;;;;;;;2.30;1.60;;;17.70;66.20;;;;;;10581010;28;20547;-20
2021/05/27 22:00:20;;;;;;;2.97;1.27;;;17.70;66.10;;;;;;10579725;28;20218;-23
2021/05/27 22:05:41;;;;;;;2.03;1.30;;;17.70;66.40;;;;;;10564478;28;20208;-20
2021/05/27 22:11:04;;;;;;;2.07;1.37;;;17.70;66.10;;;;;;10580237;28;20554;-20
2021/05/27 22:16:29;;;;;;;1.43;1.07;;;17.70;66.30;;;;;;10578991;28;20575;-20
2021/05/27 22:21:50;;;;;;;1.93;1.30;;;17.70;66.20;;;;;;10578959;28;20650;-19
2021/05/27 22:27:13;;;;;;;2.03;1.10;;;17.70;66.10;;;;;;10579321;28;20225;-19
2021/05/27 22:32:35;;;;;;;1.27;1.03;;;17.70;65.90;;;;;;10569030;28;20195;-21
2021/05/27 22:37:57;;;;;;;1.80;1.47;;;17.70;66.00;;;;;;10536982;28;20218;-22
2021/05/27 22:43:19;;;;;;;1.50;1.13;;;17.70;66.10;;;;;;10579293;28;20597;-19
2021/05/27 22:48:41;;;;;;;2.20;1.50;;;17.70;65.90;;;;;;10578406;28;20252;-20
2021/05/27 22:54:03;;;;;;;1.70;1.20;;;17.70;66.00;;;;;;10557967;28;20587;-21
2021/05/27 22:59:26;;;;;;;1.17;0.90;;;17.70;66.10;;;;;;10535758;28;20273;-21
2021/05/27 23:04:47;;;;;;;1.83;1.20;;;17.70;66.00;;;;;;10536067;28;20219;-19
2021/05/27 23:10:10;;;;;;;1.30;1.00;;;17.70;66.00;;;;;;10535493;28;20219;-21
2021/05/27 23:15:32;;;;;;;1.67;1.20;;;17.70;65.80;;;;;;10535650;28;20274;-20
2021/05/27 23:20:54;;;;;;;1.73;1.10;;;17.70;65.90;;;;;;10536315;28;20223;-22
2021/05/27 23:26:15;;;;;;;1.57;1.10;;;17.70;66.00;;;;;;10535270;28;20202;-24
2021/05/27 23:31:39;;;;;;;1.10;1.00;;;17.70;66.10;;;;;;10536914;28;20199;-21
2021/05/27 23:37:00;;;;;;;2.13;1.17;;;17.70;66.00;;;;;;10542583;28;20245;-19
2021/05/27 23:42:22;;;;;;;2.00;1.17;;;17.70;66.10;;;;;;10558456;28;20223;-21
2021/05/27 23:47:45;;;;;;;1.33;1.10;;;17.70;66.10;;;;;;10567693;28;20627;-19
2021/05/27 23:53:06;;;;;;;3.17;1.30;;;17.70;66.10;;;;;;10572307;28;20671;-23
2021/05/27 23:58:30;;;;;;;1.10;1.00;;;17.70;66.00;;;;;;10576517;28;20210;-20
